sensor_id;sensor_type;location;lat;lon;timestamp;pressure;altitude;pressure_sealevel;temperature
77414;BMP280;66486;49.992;19.164;2023-05-18T00:00:20;99446.28;;;11.24
77414;BMP280;66486;49.992;19.164;2023-05-18T00:03:07;99444.06;;;11.12
77414;BMP280;66486;49.992;19.164;2023-05-18T00:05:34;99442.22;;;11.05
77414;BMP280;66486;49.992;19.164;2023-05-18T00:07:59;99441.75;;;11.14
77414;BMP280;66486;49.992;19.164;2023-05-18T00:10:26;99446.97;;;11.32
77414;BMP280;66486;49.992;19.164;2023-05-18T00:12:52;99446.50;;;11.37
77414;BMP280;66486;49.992;19.164;2023-05-18T00:15:18;99441.03;;;11.44
77414;BMP280;66486;49.992;19.164;2023-05-18T00:17:44;99440.72;;;11.38
77414;BMP280;66486;49.992;19.164;2023-05-18T00:20:10;99450.44;;;11.25
77414;BMP280;66486;49.992;19.164;2023-05-18T00:22:37;99449.69;;;11.58
77414;BMP280;66486;49.992;19.164;2023-05-18T00:25:07;99443.03;;;11.36
77414;BMP280;66486;49.992;19.164;2023-05-18T00:27:33;99445.50;;;11.57
77414;BMP280;66486;49.992;19.164;2023-05-18T00:29:59;99428.44;;;11.67
77414;BMP280;66486;49.992;19.164;2023-05-18T00:32:25;99433.34;;;11.72
77414;BMP280;66486;49.992;19.164;2023-05-18T00:34:51;99443.41;;;11.38
77414;BMP280;66486;49.992;19.164;2023-05-18T00:37:17;99444.78;;;11.53
77414;BMP280;66486;49.992;19.164;2023-05-18T00:39:43;99440.78;;;11.65
77414;BMP280;66486;49.992;19.164;2023-05-18T00:42:09;99441.78;;;11.44
77414;BMP280;66486;49.992;19.164;2023-05-18T00:44:35;99439.50;;;11.43
77414;BMP280;66486;49.992;19.164;2023-05-18T00:47:01;99442.38;;;11.59
77414;BMP280;66486;49.992;19.164;2023-05-18T00:49:27;99444.31;;;11.58
77414;BMP280;66486;49.992;19.164;2023-05-18T00:51:53;99449.59;;;11.35
77414;BMP280;66486;49.992;19.164;2023-05-18T00:54:20;99451.47;;;11.72
77414;BMP280;66486;49.992;19.164;2023-05-18T00:56:47;99436.19;;;11.62
77414;BMP280;66486;49.992;19.164;2023-05-18T00:59:13;99450.78;;;11.64
77414;BMP280;66486;49.992;19.164;2023-05-18T01:01:40;99454.59;;;11.37
77414;BMP280;66486;49.992;19.164;2023-05-18T01:04:11;99464.66;;;11.29
77414;BMP280;66486;49.992;19.164;2023-05-18T01:06:41;99464.91;;;11.08
77414;BMP280;66486;49.992;19.164;2023-05-18T01:09:09;99464.44;;;11.16
77414;BMP280;66486;49.992;19.164;2023-05-18T01:11:55;99463.97;;;10.84
77414;BMP280;66486;49.992;19.164;2023-05-18T01:17:22;99470.50;;;10.35
77414;BMP280;66486;49.992;19.164;2023-05-18T01:24:51;99466.34;;;10.72
77414;BMP280;66486;49.992;19.164;2023-05-18T01:27:21;99461.06;;;11.05
77414;BMP280;66486;49.992;19.164;2023-05-18T01:29:49;99476.13;;;10.99
77414;BMP280;66486;49.992;19.164;2023-05-18T01:32:20;99466.72;;;10.74
77414;BMP280;66486;49.992;19.164;2023-05-18T01:34:46;99469.69;;;10.90
77414;BMP280;66486;49.992;19.164;2023-05-18T01:37:13;99462.53;;;11.17
77414;BMP280;66486;49.992;19.164;2023-05-18T01:39:39;99467.38;;;11.25
77414;BMP280;66486;49.992;19.164;2023-05-18T01:42:10;99461.16;;;11.36
77414;BMP280;66486;49.992;19.164;2023-05-18T01:44:42;99460.28;;;11.42
77414;BMP280;66486;49.992;19.164;2023-05-18T01:47:16;99471.28;;;11.55
77414;BMP280;66486;49.992;19.164;2023-05-18T01:52:23;99477.28;;;11.39
77414;BMP280;66486;49.992;19.164;2023-05-18T01:54:53;99469.13;;;11.46
77414;BMP280;66486;49.992;19.164;2023-05-18T01:57:24;99479.81;;;11.53
77414;BMP280;66486;49.992;19.164;2023-05-18T01:59:52;99479.94;;;11.43
77414;BMP280;66486;49.992;19.164;2023-05-18T02:02:20;99471.16;;;10.98
77414;BMP280;66486;49.992;19.164;2023-05-18T02:04:46;99473.97;;;10.84
77414;BMP280;66486;49.992;19.164;2023-05-18T02:07:12;99470.72;;;10.55
77414;BMP280;66486;49.992;19.164;2023-05-18T02:09:38;99480.31;;;10.59
77414;BMP280;66486;49.992;19.164;2023-05-18T02:12:04;99484.25;;;10.41
77414;BMP280;66486;49.992;19.164;2023-05-18T02:14:30;99480.88;;;10.37
77414;BMP280;66486;49.992;19.164;2023-05-18T02:16:56;99486.84;;;10.58
77414;BMP280;66486;49.992;19.164;2023-05-18T02:19:22;99488.31;;;11.11
77414;BMP280;66486;49.992;19.164;2023-05-18T02:21:49;99484.81;;;11.14
77414;BMP280;66486;49.992;19.164;2023-05-18T02:24:16;99486.88;;;10.99
77414;BMP280;66486;49.992;19.164;2023-05-18T02:26:44;99484.41;;;10.20
77414;BMP280;66486;49.992;19.164;2023-05-18T02:29:10;99492.94;;;10.00
77414;BMP280;66486;49.992;19.164;2023-05-18T02:31:37;99495.28;;;9.95
77414;BMP280;66486;49.992;19.164;2023-05-18T02:34:03;99503.19;;;10.27
77414;BMP280;66486;49.992;19.164;2023-05-18T02:36:29;99495.22;;;10.09
77414;BMP280;66486;49.992;19.164;2023-05-18T02:39:02;99499.16;;;9.80
77414;BMP280;66486;49.992;19.164;2023-05-18T02:41:33;99488.47;;;9.76
77414;BMP280;66486;49.992;19.164;2023-05-18T02:43:59;99490.81;;;9.67
77414;BMP280;66486;49.992;19.164;2023-05-18T02:46:26;99504.63;;;9.59
77414;BMP280;66486;49.992;19.164;2023-05-18T02:48:52;99500.81;;;9.53
77414;BMP280;66486;49.992;19.164;2023-05-18T02:51:18;99500.81;;;9.42
77414;BMP280;66486;49.992;19.164;2023-05-18T02:53:44;99498.56;;;9.30
77414;BMP280;66486;49.992;19.164;2023-05-18T02:56:10;99501.59;;;9.28
77414;BMP280;66486;49.992;19.164;2023-05-18T02:58:37;99503.50;;;9.35
77414;BMP280;66486;49.992;19.164;2023-05-18T03:01:04;99503.53;;;9.31
77414;BMP280;66486;49.992;19.164;2023-05-18T03:03:33;99507.34;;;9.16
77414;BMP280;66486;49.992;19.164;2023-05-18T03:05:59;99502.72;;;9.34
77414;BMP280;66486;49.992;19.164;2023-05-18T03:08:27;99511.59;;;9.21
77414;BMP280;66486;49.992;19.164;2023-05-18T03:10:54;99520.06;;;9.12
77414;BMP280;66486;49.992;19.164;2023-05-18T03:13:20;99516.59;;;9.01
77414;BMP280;66486;49.992;19.164;2023-05-18T03:15:46;99524.66;;;9.12
77414;BMP280;66486;49.992;19.164;2023-05-18T03:18:12;99516.97;;;9.03
77414;BMP280;66486;49.992;19.164;2023-05-18T03:20:38;99515.06;;;9.04
77414;BMP280;66486;49.992;19.164;2023-05-18T03:23:06;99515.03;;;9.07
77414;BMP280;66486;49.992;19.164;2023-05-18T03:25:32;99518.50;;;9.01
77414;BMP280;66486;49.992;19.164;2023-05-18T03:27:58;99518.88;;;9.17
77414;BMP280;66486;49.992;19.164;2023-05-18T03:30:24;99522.34;;;9.21
77414;BMP280;66486;49.992;19.164;2023-05-18T03:32:50;99518.50;;;9.18
77414;BMP280;66486;49.992;19.164;2023-05-18T03:35:16;99527.72;;;9.14
77414;BMP280;66486;49.992;19.164;2023-05-18T03:37:42;99534.63;;;9.11
77414;BMP280;66486;49.992;19.164;2023-05-18T03:40:12;99535.38;;;9.08
77414;BMP280;66486;49.992;19.164;2023-05-18T03:42:39;99506.25;;;8.86
77414;BMP280;66486;49.992;19.164;2023-05-18T03:45:06;99542.28;;;8.95
77414;BMP280;66486;49.992;19.164;2023-05-18T03:47:33;99530.03;;;9.01
77414;BMP280;66486;49.992;19.164;2023-05-18T03:49:59;99536.53;;;8.97
77414;BMP280;66486;49.992;19.164;2023-05-18T03:52:25;99539.59;;;9.06
77414;BMP280;66486;49.992;19.164;2023-05-18T03:54:51;99548.03;;;9.04
77414;BMP280;66486;49.992;19.164;2023-05-18T03:57:17;99557.59;;;9.02
77414;BMP280;66486;49.992;19.164;2023-05-18T03:59:44;99554.56;;;9.03
77414;BMP280;66486;49.992;19.164;2023-05-18T04:02:11;99557.59;;;9.02
77414;BMP280;66486;49.992;19.164;2023-05-18T04:04:38;99561.47;;;8.94
77414;BMP280;66486;49.992;19.164;2023-05-18T04:07:11;99562.59;;;9.07
77414;BMP280;66486;49.992;19.164;2023-05-18T04:09:38;99572.56;;;9.03
77414;BMP280;66486;49.992;19.164;2023-05-18T04:12:04;99571.44;;;9.14
77414;BMP280;66486;49.992;19.164;2023-05-18T04:14:30;99579.47;;;9.18
77414;BMP280;66486;49.992;19.164;2023-05-18T04:17:00;99579.13;;;9.12
77414;BMP280;66486;49.992;19.164;2023-05-18T04:19:31;99575.25;;;9.13
77414;BMP280;66486;49.992;19.164;2023-05-18T04:21:58;99575.25;;;9.10
77414;BMP280;66486;49.992;19.164;2023-05-18T04:24:24;99567.19;;;9.03
77414;BMP280;66486;49.992;19.164;2023-05-18T04:26:52;99571.78;;;8.95
77414;BMP280;66486;49.992;19.164;2023-05-18T04:29:18;99580.63;;;8.96
77414;BMP280;66486;49.992;19.164;2023-05-18T04:31:44;99579.81;;;8.88
77414;BMP280;66486;49.992;19.164;2023-05-18T04:34:13;99582.91;;;8.97
77414;BMP280;66486;49.992;19.164;2023-05-18T04:36:43;99581.38;;;8.93
77414;BMP280;66486;49.992;19.164;2023-05-18T04:39:09;99571.44;;;9.11
77414;BMP280;66486;49.992;19.164;2023-05-18T04:41:36;99587.91;;;9.09
77414;BMP280;66486;49.992;19.164;2023-05-18T04:44:02;99584.44;;;8.98
77414;BMP280;66486;49.992;19.164;2023-05-18T04:46:29;99590.97;;;9.01
77414;BMP280;66486;49.992;19.164;2023-05-18T04:48:55;99579.84;;;9.02
77414;BMP280;66486;49.992;19.164;2023-05-18T04:51:23;99584.44;;;8.98
77414;BMP280;66486;49.992;19.164;2023-05-18T04:53:49;99585.22;;;9.09
77414;BMP280;66486;49.992;19.164;2023-05-18T04:56:16;99578.72;;;8.96
77414;BMP280;66486;49.992;19.164;2023-05-18T04:58:42;99589.81;;;9.02
77414;BMP280;66486;49.992;19.164;2023-05-18T05:01:13;99585.22;;;9.06
77414;BMP280;66486;49.992;19.164;2023-05-18T05:03:43;99594.81;;;9.14
77414;BMP280;66486;49.992;19.164;2023-05-18T05:06:09;99597.13;;;9.12
77414;BMP280;66486;49.992;19.164;2023-05-18T05:08:36;99591.38;;;9.13
77414;BMP280;66486;49.992;19.164;2023-05-18T05:11:03;99600.97;;;9.21
77414;BMP280;66486;49.992;19.164;2023-05-18T05:13:29;99597.91;;;9.26
77414;BMP280;66486;49.992;19.164;2023-05-18T05:15:55;99601.38;;;9.41
77414;BMP280;66486;49.992;19.164;2023-05-18T05:18:21;99620.16;;;9.41
77414;BMP280;66486;49.992;19.164;2023-05-18T05:20:49;99624.38;;;9.24
77414;BMP280;66486;49.992;19.164;2023-05-18T05:23:15;99605.56;;;9.14
77414;BMP280;66486;49.992;19.164;2023-05-18T05:25:41;99621.66;;;9.14
77414;BMP280;66486;49.992;19.164;2023-05-18T05:28:06;99615.50;;;9.06
77414;BMP280;66486;49.992;19.164;2023-05-18T05:30:33;99616.69;;;9.19
77414;BMP280;66486;49.992;19.164;2023-05-18T05:32:58;99614.34;;;9.07
77414;BMP280;66486;49.992;19.164;2023-05-18T05:35:24;99622.44;;;9.14
77414;BMP280;66486;49.992;19.164;2023-05-18T05:37:50;99622.41;;;9.07
77414;BMP280;66486;49.992;19.164;2023-05-18T05:40:17;99621.28;;;9.08
77414;BMP280;66486;49.992;19.164;2023-05-18T05:42:43;99619.75;;;9.21
77414;BMP280;66486;49.992;19.164;2023-05-18T05:45:09;99620.50;;;9.25
77414;BMP280;66486;49.992;19.164;2023-05-18T05:47:35;99612.84;;;9.27
77414;BMP280;66486;49.992;19.164;2023-05-18T05:50:01;99631.25;;;9.43
77414;BMP280;66486;49.992;19.164;2023-05-18T05:52:27;99629.75;;;9.60
77414;BMP280;66486;49.992;19.164;2023-05-18T05:54:54;99622.06;;;9.65
77414;BMP280;66486;49.992;19.164;2023-05-18T05:57:20;99631.25;;;9.61
77414;BMP280;66486;49.992;19.164;2023-05-18T05:59:46;99639.72;;;9.77
77414;BMP280;66486;49.992;19.164;2023-05-18T06:02:12;99630.13;;;9.48
77414;BMP280;66486;49.992;19.164;2023-05-18T06:04:38;99632.81;;;9.55
77414;BMP280;66486;49.992;19.164;2023-05-18T06:07:04;99628.22;;;9.52
77414;BMP280;66486;49.992;19.164;2023-05-18T06:09:31;99644.31;;;9.45
77414;BMP280;66486;49.992;19.164;2023-05-18T06:11:56;99643.94;;;9.60
77414;BMP280;66486;49.992;19.164;2023-05-18T06:14:23;99638.94;;;9.73
77414;BMP280;66486;49.992;19.164;2023-05-18T06:16:48;99652.38;;;9.55
77414;BMP280;66486;49.992;19.164;2023-05-18T06:19:15;99655.84;;;9.56
77414;BMP280;66486;49.992;19.164;2023-05-18T06:21:40;99654.28;;;9.48
77414;BMP280;66486;49.992;19.164;2023-05-18T06:24:07;99655.84;;;9.38
77414;BMP280;66486;49.992;19.164;2023-05-18T06:26:33;99656.59;;;9.49
77414;BMP280;66486;49.992;19.164;2023-05-18T06:28:59;99650.47;;;9.56
77414;BMP280;66486;49.992;19.164;2023-05-18T06:31:25;99658.13;;;9.61
77414;BMP280;66486;49.992;19.164;2023-05-18T06:33:51;99661.59;;;9.68
77414;BMP280;66486;49.992;19.164;2023-05-18T06:36:17;99657.00;;;9.58
77414;BMP280;66486;49.992;19.164;2023-05-18T06:38:43;99662.72;;;9.57
77414;BMP280;66486;49.992;19.164;2023-05-18T06:41:09;99658.91;;;9.68
77414;BMP280;66486;49.992;19.164;2023-05-18T06:43:35;99661.16;;;9.87
77414;BMP280;66486;49.992;19.164;2023-05-18T06:46:01;99663.88;;;9.80
77414;BMP280;66486;49.992;19.164;2023-05-18T06:48:28;99659.66;;;9.76
77414;BMP280;66486;49.992;19.164;2023-05-18T06:50:54;99657.75;;;9.69
77414;BMP280;66486;49.992;19.164;2023-05-18T06:53:20;99664.25;;;9.75
77414;BMP280;66486;49.992;19.164;2023-05-18T06:55:47;99671.94;;;9.84
77414;BMP280;66486;49.992;19.164;2023-05-18T06:58:14;99661.97;;;9.95
77414;BMP280;66486;49.992;19.164;2023-05-18T07:00:39;99661.56;;;9.86
77414;BMP280;66486;49.992;19.164;2023-05-18T07:03:06;99670.00;;;9.98
77414;BMP280;66486;49.992;19.164;2023-05-18T07:05:32;99666.53;;;9.98
77414;BMP280;66486;49.992;19.164;2023-05-18T07:07:59;99648.44;;;10.16
77414;BMP280;66486;49.992;19.164;2023-05-18T07:10:24;99658.09;;;10.03
77414;BMP280;66486;49.992;19.164;2023-05-18T07:12:51;99667.25;;;10.23
77414;BMP280;66486;49.992;19.164;2023-05-18T07:15:16;99672.59;;;10.30
77414;BMP280;66486;49.992;19.164;2023-05-18T07:17:43;99674.47;;;10.47
77414;BMP280;66486;49.992;19.164;2023-05-18T07:20:09;99676.09;;;10.13
77414;BMP280;66486;49.992;19.164;2023-05-18T07:22:36;99664.63;;;9.88
77414;BMP280;66486;49.992;19.164;2023-05-18T07:25:02;99681.88;;;10.05
77414;BMP280;66486;49.992;19.164;2023-05-18T07:27:28;99683.06;;;9.96
77414;BMP280;66486;49.992;19.164;2023-05-18T07:29:54;99687.63;;;10.17
77414;BMP280;66486;49.992;19.164;2023-05-18T07:32:20;99689.47;;;10.38
77414;BMP280;66486;49.992;19.164;2023-05-18T07:34:46;99687.47;;;10.67
77414;BMP280;66486;49.992;19.164;2023-05-18T07:37:12;99686.50;;;11.05
77414;BMP280;66486;49.992;19.164;2023-05-18T07:39:38;99694.63;;;11.01
77414;BMP280;66486;49.992;19.164;2023-05-18T07:42:05;99699.22;;;11.01
77414;BMP280;66486;49.992;19.164;2023-05-18T07:44:31;99694.63;;;10.98
77414;BMP280;66486;49.992;19.164;2023-05-18T07:46:57;99697.75;;;10.89
77414;BMP280;66486;49.992;19.164;2023-05-18T07:49:23;99696.63;;;10.80
77414;BMP280;66486;49.992;19.164;2023-05-18T07:51:50;99701.63;;;10.81
77414;BMP280;66486;49.992;19.164;2023-05-18T07:54:16;99681.34;;;10.55
77414;BMP280;66486;49.992;19.164;2023-05-18T07:56:42;99700.63;;;10.50
77414;BMP280;66486;49.992;19.164;2023-05-18T07:59:09;99698.59;;;10.72
77414;BMP280;66486;49.992;19.164;2023-05-18T08:01:35;99693.59;;;10.74
77414;BMP280;66486;49.992;19.164;2023-05-18T08:04:03;99701.97;;;10.87
77414;BMP280;66486;49.992;19.164;2023-05-18T08:06:29;99701.97;;;10.87
77414;BMP280;66486;49.992;19.164;2023-05-18T08:08:57;99706.53;;;11.00
77414;BMP280;66486;49.992;19.164;2023-05-18T08:11:23;99710.34;;;11.10
77414;BMP280;66486;49.992;19.164;2023-05-18T08:13:49;99696.41;;;11.22
77414;BMP280;66486;49.992;19.164;2023-05-18T08:16:15;99706.03;;;11.23
77414;BMP280;66486;49.992;19.164;2023-05-18T08:18:41;99709.88;;;11.22
77414;BMP280;66486;49.992;19.164;2023-05-18T08:21:07;99708.25;;;11.35
77414;BMP280;66486;49.992;19.164;2023-05-18T08:23:37;99694.06;;;11.27
77414;BMP280;66486;49.992;19.164;2023-05-18T08:26:03;99692.56;;;11.23
77414;BMP280;66486;49.992;19.164;2023-05-18T08:28:30;99709.44;;;11.78
77414;BMP280;66486;49.992;19.164;2023-05-18T08:30:57;99705.94;;;11.81
77414;BMP280;66486;49.992;19.164;2023-05-18T08:33:23;99713.53;;;11.53
77414;BMP280;66486;49.992;19.164;2023-05-18T08:35:49;99704.59;;;11.59
77414;BMP280;66486;49.992;19.164;2023-05-18T08:38:15;99712.00;;;11.48
77414;BMP280;66486;49.992;19.164;2023-05-18T08:43:20;99708.34;;;11.21
77414;BMP280;66486;49.992;19.164;2023-05-18T08:46:00;99710.34;;;11.03
77414;BMP280;66486;49.992;19.164;2023-05-18T08:48:30;99704.53;;;11.11
77414;BMP280;66486;49.992;19.164;2023-05-18T08:50:57;99713.63;;;11.39
77414;BMP280;66486;49.992;19.164;2023-05-18T08:53:24;99716.81;;;11.19
77414;BMP280;66486;49.992;19.164;2023-05-18T08:55:53;99699.09;;;11.18
77414;BMP280;66486;49.992;19.164;2023-05-18T08:58:20;99712.44;;;11.40
77414;BMP280;66486;49.992;19.164;2023-05-18T09:00:52;99713.00;;;11.17
77414;BMP280;66486;49.992;19.164;2023-05-18T09:03:20;99719.47;;;11.26
77414;BMP280;66486;49.992;19.164;2023-05-18T09:05:47;99714.22;;;11.60
77414;BMP280;66486;49.992;19.164;2023-05-18T09:08:14;99713.59;;;11.42
77414;BMP280;66486;49.992;19.164;2023-05-18T09:10:41;99715.72;;;11.65
77414;BMP280;66486;49.992;19.164;2023-05-18T09:13:08;99705.88;;;11.88
77414;BMP280;66486;49.992;19.164;2023-05-18T09:15:34;99716.28;;;11.90
77414;BMP280;66486;49.992;19.164;2023-05-18T09:18:00;99717.75;;;11.54
77414;BMP280;66486;49.992;19.164;2023-05-18T09:20:26;99714.44;;;11.28
77414;BMP280;66486;49.992;19.164;2023-05-18T09:22:53;99712.69;;;11.56
77414;BMP280;66486;49.992;19.164;2023-05-18T09:25:20;99713.47;;;11.60
77414;BMP280;66486;49.992;19.164;2023-05-18T09:27:47;99718.94;;;11.93
77414;BMP280;66486;49.992;19.164;2023-05-18T09:30:13;99717.75;;;11.94
77414;BMP280;66486;49.992;19.164;2023-05-18T09:32:39;99714.47;;;12.14
77414;BMP280;66486;49.992;19.164;2023-05-18T09:35:07;99710.47;;;12.29
77414;BMP280;66486;49.992;19.164;2023-05-18T09:37:33;99721.03;;;12.50
77414;BMP280;66486;49.992;19.164;2023-05-18T09:40:02;99719.56;;;12.12
77414;BMP280;66486;49.992;19.164;2023-05-18T09:42:42;99730.78;;;12.40
77414;BMP280;66486;49.992;19.164;2023-05-18T09:45:18;99729.09;;;12.84
77414;BMP280;66486;49.992;19.164;2023-05-18T09:47:45;99729.88;;;13.38
77414;BMP280;66486;49.992;19.164;2023-05-18T09:50:11;99711.25;;;13.16
77414;BMP280;66486;49.992;19.164;2023-05-18T09:52:42;99722.88;;;12.87
77414;BMP280;66486;49.992;19.164;2023-05-18T09:55:10;99727.78;;;12.65
77414;BMP280;66486;49.992;19.164;2023-05-18T09:57:41;99727.81;;;12.61
77414;BMP280;66486;49.992;19.164;2023-05-18T10:00:09;99728.84;;;12.75
77414;BMP280;66486;49.992;19.164;2023-05-18T10:02:40;99721.50;;;12.45
77414;BMP280;66486;49.992;19.164;2023-05-18T10:05:27;99728.25;;;12.60
77414;BMP280;66486;49.992;19.164;2023-05-18T10:07:57;99729.03;;;12.87
77414;BMP280;66486;49.992;19.164;2023-05-18T10:10:25;99730.31;;;12.49
77414;BMP280;66486;49.992;19.164;2023-05-18T10:12:53;99725.19;;;12.21
77414;BMP280;66486;49.992;19.164;2023-05-18T10:15:21;99721.97;;;12.36
77414;BMP280;66486;49.992;19.164;2023-05-18T10:17:48;99719.91;;;12.47
77414;BMP280;66486;49.992;19.164;2023-05-18T10:20:20;99731.28;;;12.32
77414;BMP280;66486;49.992;19.164;2023-05-18T10:22:49;99721.81;;;12.47
77414;BMP280;66486;49.992;19.164;2023-05-18T10:25:18;99740.75;;;12.77
77414;BMP280;66486;49.992;19.164;2023-05-18T10:27:46;99734.19;;;12.78
77414;BMP280;66486;49.992;19.164;2023-05-18T10:30:13;99733.03;;;12.76
77414;BMP280;66486;49.992;19.164;2023-05-18T10:32:41;99730.03;;;12.74
77414;BMP280;66486;49.992;19.164;2023-05-18T10:35:09;99734.22;;;12.75
77414;BMP280;66486;49.992;19.164;2023-05-18T10:37:38;99733.34;;;12.85
77414;BMP280;66486;49.992;19.164;2023-05-18T10:40:07;99739.81;;;12.91
77414;BMP280;66486;49.992;19.164;2023-05-18T10:42:34;99737.69;;;12.75
77414;BMP280;66486;49.992;19.164;2023-05-18T10:45:01;99723.28;;;12.55
77414;BMP280;66486;49.992;19.164;2023-05-18T10:47:27;99735.06;;;12.38
77414;BMP280;66486;49.992;19.164;2023-05-18T10:49:54;99738.09;;;12.40
77414;BMP280;66486;49.992;19.164;2023-05-18T10:52:20;99731.13;;;12.42
77414;BMP280;66486;49.992;19.164;2023-05-18T10:54:46;99729.19;;;12.09
77414;BMP280;66486;49.992;19.164;2023-05-18T10:57:15;99731.44;;;12.14
77414;BMP280;66486;49.992;19.164;2023-05-18T10:59:43;99731.75;;;12.23
77414;BMP280;66486;49.992;19.164;2023-05-18T11:02:12;99731.06;;;11.75
77414;BMP280;66486;49.992;19.164;2023-05-18T11:04:39;99737.53;;;11.81
77414;BMP280;66486;49.992;19.164;2023-05-18T11:07:10;99736.88;;;11.66
77414;BMP280;66486;49.992;19.164;2023-05-18T11:09:40;99744.44;;;11.85
77414;BMP280;66486;49.992;19.164;2023-05-18T11:12:11;99737.72;;;12.04
77414;BMP280;66486;49.992;19.164;2023-05-18T11:14:49;99747.56;;;12.21
77414;BMP280;66486;49.992;19.164;2023-05-18T11:17:27;99743.69;;;12.26
77414;BMP280;66486;49.992;19.164;2023-05-18T11:28:00;99744.13;;;12.85
77414;BMP280;66486;49.992;19.164;2023-05-18T11:30:29;99756.03;;;12.87
77414;BMP280;66486;49.992;19.164;2023-05-18T11:33:07;99748.81;;;12.81
77414;BMP280;66486;49.992;19.164;2023-05-18T11:38:22;99760.69;;;12.56
77414;BMP280;66486;49.992;19.164;2023-05-18T11:40:49;99758.59;;;12.68
77414;BMP280;66486;49.992;19.164;2023-05-18T11:43:20;99758.47;;;12.11
77414;BMP280;66486;49.992;19.164;2023-05-18T11:45:54;99760.69;;;12.19
77414;BMP280;66486;49.992;19.164;2023-05-18T11:48:27;99758.34;;;11.80
77414;BMP280;66486;49.992;19.164;2023-05-18T11:50:56;99761.09;;;11.73
77414;BMP280;66486;49.992;19.164;2023-05-18T11:53:23;99766.16;;;11.68
77414;BMP280;66486;49.992;19.164;2023-05-18T11:55:53;99757.53;;;11.87
77414;BMP280;66486;49.992;19.164;2023-05-18T11:58:24;99771.19;;;12.07
77414;BMP280;66486;49.992;19.164;2023-05-18T12:00:51;99766.81;;;11.82
77414;BMP280;66486;49.992;19.164;2023-05-18T12:03:29;99774.41;;;11.91
77414;BMP280;66486;49.992;19.164;2023-05-18T12:05:59;99776.97;;;11.64
77414;BMP280;66486;49.992;19.164;2023-05-18T12:08:26;99765.69;;;11.76
77414;BMP280;66486;49.992;19.164;2023-05-18T12:10:54;99772.28;;;11.72
77414;BMP280;66486;49.992;19.164;2023-05-18T12:13:22;99777.00;;;12.09
77414;BMP280;66486;49.992;19.164;2023-05-18T12:15:49;99772.53;;;11.84
77414;BMP280;66486;49.992;19.164;2023-05-18T12:18:17;99769.63;;;11.68
77414;BMP280;66486;49.992;19.164;2023-05-18T12:20:43;99779.81;;;11.91
77414;BMP280;66486;49.992;19.164;2023-05-18T12:23:11;99787.13;;;11.98
77414;BMP280;66486;49.992;19.164;2023-05-18T12:25:37;99777.81;;;12.02
77414;BMP280;66486;49.992;19.164;2023-05-18T12:28:03;99780.34;;;12.20
77414;BMP280;66486;49.992;19.164;2023-05-18T12:30:29;99783.72;;;12.27
77414;BMP280;66486;49.992;19.164;2023-05-18T12:33:01;99787.56;;;12.30
77414;BMP280;66486;49.992;19.164;2023-05-18T12:35:29;99775.72;;;11.72
77414;BMP280;66486;49.992;19.164;2023-05-18T12:37:56;99779.69;;;11.61
77414;BMP280;66486;49.992;19.164;2023-05-18T12:40:25;99772.31;;;11.68
77414;BMP280;66486;49.992;19.164;2023-05-18T12:43:01;99777.34;;;12.11
77414;BMP280;66486;49.992;19.164;2023-05-18T12:45:31;99777.06;;;12.02
77414;BMP280;66486;49.992;19.164;2023-05-18T12:48:07;99780.00;;;12.14
77414;BMP280;66486;49.992;19.164;2023-05-18T12:50:33;99782.28;;;12.19
77414;BMP280;66486;49.992;19.164;2023-05-18T12:53:01;99770.59;;;11.88
77414;BMP280;66486;49.992;19.164;2023-05-18T12:55:29;99776.06;;;12.26
77414;BMP280;66486;49.992;19.164;2023-05-18T12:58:05;99773.91;;;12.07
77414;BMP280;66486;49.992;19.164;2023-05-18T13:00:34;99771.69;;;12.35
77414;BMP280;66486;49.992;19.164;2023-05-18T13:03:07;99776.63;;;12.78
77414;BMP280;66486;49.992;19.164;2023-05-18T13:05:34;99771.59;;;12.46
77414;BMP280;66486;49.992;19.164;2023-05-18T13:08:00;99773.50;;;12.49
77414;BMP280;66486;49.992;19.164;2023-05-18T13:10:30;99767.94;;;11.85
77414;BMP280;66486;49.992;19.164;2023-05-18T13:12:57;99769.44;;;11.89
77414;BMP280;66486;49.992;19.164;2023-05-18T13:15:36;99760.47;;;12.00
77414;BMP280;66486;49.992;19.164;2023-05-18T13:18:06;99758.47;;;12.11
77414;BMP280;66486;49.992;19.164;2023-05-18T13:20:39;99764.72;;;12.41
77414;BMP280;66486;49.992;19.164;2023-05-18T13:23:11;99762.31;;;12.47
77414;BMP280;66486;49.992;19.164;2023-05-18T13:25:41;99760.19;;;12.28
77414;BMP280;66486;49.992;19.164;2023-05-18T13:28:08;99756.66;;;12.38
77414;BMP280;66486;49.992;19.164;2023-05-18T13:30:38;99761.19;;;12.07
77414;BMP280;66486;49.992;19.164;2023-05-18T13:33:05;99758.47;;;12.48
77414;BMP280;66486;49.992;19.164;2023-05-18T13:35:35;99759.34;;;12.72
77414;BMP280;66486;49.992;19.164;2023-05-18T13:38:02;99758.00;;;12.56
77414;BMP280;66486;49.992;19.164;2023-05-18T13:40:28;99757.69;;;12.47
77414;BMP280;66486;49.992;19.164;2023-05-18T13:42:54;99756.25;;;12.39
77414;BMP280;66486;49.992;19.164;2023-05-18T13:45:20;99754.72;;;12.35
77414;BMP280;66486;49.992;19.164;2023-05-18T13:47:46;99757.28;;;12.52
77414;BMP280;66486;49.992;19.164;2023-05-18T13:50:16;99749.94;;;12.83
77414;BMP280;66486;49.992;19.164;2023-05-18T13:52:43;99747.75;;;12.75
77414;BMP280;66486;49.992;19.164;2023-05-18T13:55:09;99753.56;;;12.73
77414;BMP280;66486;49.992;19.164;2023-05-18T13:57:35;99750.56;;;12.30
77414;BMP280;66486;49.992;19.164;2023-05-18T14:00:02;99757.13;;;11.88
77414;BMP280;66486;49.992;19.164;2023-05-18T14:02:31;99735.72;;;11.67
77414;BMP280;66486;49.992;19.164;2023-05-18T14:04:57;99737.22;;;11.75
77414;BMP280;66486;49.992;19.164;2023-05-18T14:07:23;99749.16;;;11.74
77414;BMP280;66486;49.992;19.164;2023-05-18T14:09:49;99750.41;;;11.59
77414;BMP280;66486;49.992;19.164;2023-05-18T14:12:15;99744.06;;;11.36
77414;BMP280;66486;49.992;19.164;2023-05-18T14:14:41;99742.59;;;11.24
77414;BMP280;66486;49.992;19.164;2023-05-18T14:17:08;99743.59;;;11.41
77414;BMP280;66486;49.992;19.164;2023-05-18T14:19:34;99738.97;;;11.45
77414;BMP280;66486;49.992;19.164;2023-05-18T14:22:01;99740.91;;;11.41
77414;BMP280;66486;49.992;19.164;2023-05-18T14:24:27;99740.81;;;11.55
77414;BMP280;66486;49.992;19.164;2023-05-18T14:26:53;99741.72;;;11.34